Terminal Aerodrome Forecast
Issued by NWS Billings, MT

Home | Current Version | Previous Version | Text Only | Print | Product List | Glossary On
Versions: 1 2 3 4 5 6 7 8 9 10 11 12 13 14 15 16 17 18 19 20 21 22 23 24 25 26 27 28 29
000
FTUS45 KBYZ 220353 AAA
TAFSHR
TAF AMD
KSHR 220353Z 2204/2224 33025G35KT P6SM BKN080
     FM220900 31020G30KT P6SM SCT080 BKN120
     FM221900 33025G40KT P6SM VCSH BKN050=

USA.gov is the U.S. government's official web portal to all federal, state and local government web resources and services.